sensor_id;sensor_type;location;lat;lon;timestamp;P1;durP1;ratioP1;P2;durP2;ratioP2
9388;SDS011;4734;52.778;6.798;2023-11-19T00:00:14;8.23;;;7.00;;
9388;SDS011;4734;52.778;6.798;2023-11-19T00:03:00;9.27;;;7.60;;
9388;SDS011;4734;52.778;6.798;2023-11-19T00:05:46;10.63;;;7.77;;
9388;SDS011;4734;52.778;6.798;2023-11-19T00:08:33;10.60;;;8.40;;
9388;SDS011;4734;52.778;6.798;2023-11-19T00:11:18;9.37;;;8.20;;
9388;SDS011;4734;52.778;6.798;2023-11-19T00:14:04;10.77;;;8.50;;
9388;SDS011;4734;52.778;6.798;2023-11-19T00:16:52;9.65;;;7.90;;
9388;SDS011;4734;52.778;6.798;2023-11-19T00:19:37;10.90;;;9.20;;
9388;SDS011;4734;52.778;6.798;2023-11-19T00:22:23;13.18;;;9.45;;
9388;SDS011;4734;52.778;6.798;2023-11-19T00:25:10;15.23;;;9.20;;
9388;SDS011;4734;52.778;6.798;2023-11-19T00:27:56;10.43;;;9.10;;
9388;SDS011;4734;52.778;6.798;2023-11-19T00:30:43;12.80;;;10.30;;
9388;SDS011;4734;52.778;6.798;2023-11-19T00:33:28;11.27;;;9.20;;
9388;SDS011;4734;52.778;6.798;2023-11-19T00:36:15;12.82;;;9.48;;
9388;SDS011;4734;52.778;6.798;2023-11-19T00:39:00;12.32;;;9.90;;
9388;SDS011;4734;52.778;6.798;2023-11-19T00:41:47;14.00;;;10.38;;
9388;SDS011;4734;52.778;6.798;2023-11-19T00:44:33;12.55;;;10.25;;
9388;SDS011;4734;52.778;6.798;2023-11-19T00:47:18;14.55;;;9.98;;
9388;SDS011;4734;52.778;6.798;2023-11-19T00:50:05;15.82;;;10.13;;
9388;SDS011;4734;52.778;6.798;2023-11-19T00:52:53;13.75;;;10.38;;
9388;SDS011;4734;52.778;6.798;2023-11-19T00:55:38;13.20;;;10.27;;
9388;SDS011;4734;52.778;6.798;2023-11-19T00:58:25;12.10;;;10.43;;
9388;SDS011;4734;52.778;6.798;2023-11-19T01:01:11;16.45;;;10.02;;
9388;SDS011;4734;52.778;6.798;2023-11-19T01:03:56;15.68;;;10.70;;
9388;SDS011;4734;52.778;6.798;2023-11-19T01:06:42;20.02;;;11.10;;
9388;SDS011;4734;52.778;6.798;2023-11-19T01:09:28;16.85;;;10.43;;
9388;SDS011;4734;52.778;6.798;2023-11-19T01:12:16;14.77;;;10.88;;
9388;SDS011;4734;52.778;6.798;2023-11-19T01:15:03;19.10;;;10.68;;
9388;SDS011;4734;52.778;6.798;2023-11-19T01:17:49;14.23;;;10.10;;
9388;SDS011;4734;52.778;6.798;2023-11-19T01:20:35;16.02;;;10.55;;
9388;SDS011;4734;52.778;6.798;2023-11-19T01:23:21;17.48;;;9.85;;
9388;SDS011;4734;52.778;6.798;2023-11-19T01:26:06;18.40;;;10.52;;
9388;SDS011;4734;52.778;6.798;2023-11-19T01:28:53;17.92;;;11.27;;
9388;SDS011;4734;52.778;6.798;2023-11-19T01:31:40;16.58;;;10.10;;
9388;SDS011;4734;52.778;6.798;2023-11-19T01:34:26;17.48;;;9.57;;
9388;SDS011;4734;52.778;6.798;2023-11-19T01:37:12;21.10;;;10.80;;
9388;SDS011;4734;52.778;6.798;2023-11-19T01:39:58;16.85;;;9.77;;
9388;SDS011;4734;52.778;6.798;2023-11-19T01:42:43;14.60;;;9.02;;
9388;SDS011;4734;52.778;6.798;2023-11-19T01:45:29;21.27;;;10.63;;
9388;SDS011;4734;52.778;6.798;2023-11-19T01:48:17;19.80;;;10.65;;
9388;SDS011;4734;52.778;6.798;2023-11-19T01:51:03;17.77;;;10.70;;
9388;SDS011;4734;52.778;6.798;2023-11-19T01:53:50;21.92;;;11.02;;
9388;SDS011;4734;52.778;6.798;2023-11-19T01:56:36;17.80;;;9.52;;
9388;SDS011;4734;52.778;6.798;2023-11-19T01:59:24;16.88;;;9.13;;
9388;SDS011;4734;52.778;6.798;2023-11-19T02:02:11;22.20;;;9.20;;
9388;SDS011;4734;52.778;6.798;2023-11-19T02:04:58;19.05;;;8.95;;
9388;SDS011;4734;52.778;6.798;2023-11-19T02:07:44;20.70;;;7.93;;
9388;SDS011;4734;52.778;6.798;2023-11-19T02:10:30;18.17;;;8.63;;
9388;SDS011;4734;52.778;6.798;2023-11-19T02:13:15;17.60;;;7.60;;
9388;SDS011;4734;52.778;6.798;2023-11-19T02:16:01;15.70;;;7.75;;
9388;SDS011;4734;52.778;6.798;2023-11-19T02:18:46;19.20;;;7.13;;
9388;SDS011;4734;52.778;6.798;2023-11-19T02:21:33;18.08;;;6.40;;
9388;SDS011;4734;52.778;6.798;2023-11-19T02:24:20;18.75;;;7.55;;
9388;SDS011;4734;52.778;6.798;2023-11-19T02:27:07;15.98;;;5.80;;
9388;SDS011;4734;52.778;6.798;2023-11-19T02:30:02;19.10;;;5.20;;
9388;SDS011;4734;52.778;6.798;2023-11-19T02:32:52;22.48;;;5.63;;
9388;SDS011;4734;52.778;6.798;2023-11-19T02:35:38;13.27;;;4.63;;
9388;SDS011;4734;52.778;6.798;2023-11-19T02:38:24;21.83;;;4.95;;
9388;SDS011;4734;52.778;6.798;2023-11-19T02:41:09;19.02;;;5.30;;
9388;SDS011;4734;52.778;6.798;2023-11-19T02:43:55;12.18;;;4.80;;
9388;SDS011;4734;52.778;6.798;2023-11-19T02:46:42;15.57;;;4.00;;
9388;SDS011;4734;52.778;6.798;2023-11-19T02:49:27;21.70;;;4.65;;
9388;SDS011;4734;52.778;6.798;2023-11-19T02:52:13;12.52;;;3.80;;
9388;SDS011;4734;52.778;6.798;2023-11-19T02:54:59;22.05;;;3.90;;
9388;SDS011;4734;52.778;6.798;2023-11-19T02:57:44;19.85;;;4.05;;
9388;SDS011;4734;52.778;6.798;2023-11-19T03:00:32;17.65;;;3.80;;
9388;SDS011;4734;52.778;6.798;2023-11-19T03:03:22;24.40;;;4.35;;
9388;SDS011;4734;52.778;6.798;2023-11-19T03:06:12;27.85;;;4.13;;
9388;SDS011;4734;52.778;6.798;2023-11-19T03:08:57;25.20;;;3.90;;
9388;SDS011;4734;52.778;6.798;2023-11-19T03:11:49;21.90;;;4.00;;
9388;SDS011;4734;52.778;6.798;2023-11-19T03:14:34;23.35;;;4.00;;
9388;SDS011;4734;52.778;6.798;2023-11-19T03:17:20;18.52;;;4.50;;
9388;SDS011;4734;52.778;6.798;2023-11-19T03:20:08;20.52;;;3.95;;
9388;SDS011;4734;52.778;6.798;2023-11-19T03:22:55;17.58;;;4.13;;
9388;SDS011;4734;52.778;6.798;2023-11-19T03:25:42;22.52;;;4.57;;
9388;SDS011;4734;52.778;6.798;2023-11-19T03:28:28;28.70;;;4.53;;
9388;SDS011;4734;52.778;6.798;2023-11-19T03:31:14;20.33;;;4.15;;
9388;SDS011;4734;52.778;6.798;2023-11-19T03:33:59;21.83;;;4.35;;
9388;SDS011;4734;52.778;6.798;2023-11-19T03:36:46;22.00;;;4.30;;
9388;SDS011;4734;52.778;6.798;2023-11-19T03:39:32;16.08;;;3.75;;
9388;SDS011;4734;52.778;6.798;2023-11-19T03:42:18;26.30;;;4.80;;
9388;SDS011;4734;52.778;6.798;2023-11-19T03:45:04;22.33;;;3.97;;
9388;SDS011;4734;52.778;6.798;2023-11-19T03:47:52;29.27;;;4.40;;
9388;SDS011;4734;52.778;6.798;2023-11-19T03:50:37;21.17;;;4.15;;
9388;SDS011;4734;52.778;6.798;2023-11-19T03:53:24;29.63;;;4.57;;
9388;SDS011;4734;52.778;6.798;2023-11-19T03:56:10;18.90;;;4.32;;
9388;SDS011;4734;52.778;6.798;2023-11-19T03:58:55;27.80;;;4.63;;
9388;SDS011;4734;52.778;6.798;2023-11-19T04:01:41;28.13;;;5.00;;
9388;SDS011;4734;52.778;6.798;2023-11-19T04:04:27;26.63;;;5.13;;
9388;SDS011;4734;52.778;6.798;2023-11-19T04:07:13;26.23;;;4.90;;
9388;SDS011;4734;52.778;6.798;2023-11-19T04:10:00;31.05;;;5.20;;
9388;SDS011;4734;52.778;6.798;2023-11-19T04:12:46;29.20;;;4.95;;
9388;SDS011;4734;52.778;6.798;2023-11-19T04:15:32;42.17;;;4.82;;
9388;SDS011;4734;52.778;6.798;2023-11-19T04:18:17;30.30;;;5.70;;
9388;SDS011;4734;52.778;6.798;2023-11-19T04:21:05;21.95;;;5.05;;
9388;SDS011;4734;52.778;6.798;2023-11-19T04:23:51;27.35;;;5.43;;
9388;SDS011;4734;52.778;6.798;2023-11-19T04:26:38;26.95;;;5.07;;
9388;SDS011;4734;52.778;6.798;2023-11-19T04:29:25;29.88;;;4.88;;
9388;SDS011;4734;52.778;6.798;2023-11-19T04:32:11;27.70;;;5.03;;
9388;SDS011;4734;52.778;6.798;2023-11-19T04:34:56;22.70;;;5.15;;
9388;SDS011;4734;52.778;6.798;2023-11-19T04:37:42;30.95;;;4.78;;
9388;SDS011;4734;52.778;6.798;2023-11-19T04:40:28;23.30;;;5.22;;
9388;SDS011;4734;52.778;6.798;2023-11-19T04:43:14;26.77;;;5.10;;
9388;SDS011;4734;52.778;6.798;2023-11-19T04:46:03;27.63;;;4.97;;
9388;SDS011;4734;52.778;6.798;2023-11-19T04:48:48;27.00;;;5.22;;
9388;SDS011;4734;52.778;6.798;2023-11-19T04:51:37;22.60;;;5.07;;
9388;SDS011;4734;52.778;6.798;2023-11-19T04:54:23;26.08;;;5.00;;
9388;SDS011;4734;52.778;6.798;2023-11-19T04:57:09;32.05;;;6.35;;
9388;SDS011;4734;52.778;6.798;2023-11-19T04:59:57;30.27;;;4.60;;
9388;SDS011;4734;52.778;6.798;2023-11-19T05:02:43;28.58;;;5.57;;
9388;SDS011;4734;52.778;6.798;2023-11-19T05:05:28;28.20;;;5.38;;
9388;SDS011;4734;52.778;6.798;2023-11-19T05:08:14;30.25;;;5.85;;
9388;SDS011;4734;52.778;6.798;2023-11-19T05:10:59;30.80;;;5.35;;
9388;SDS011;4734;52.778;6.798;2023-11-19T05:13:45;29.73;;;5.60;;
9388;SDS011;4734;52.778;6.798;2023-11-19T05:16:32;19.45;;;4.60;;
9388;SDS011;4734;52.778;6.798;2023-11-19T05:19:18;35.70;;;5.85;;
9388;SDS011;4734;52.778;6.798;2023-11-19T05:22:04;29.25;;;5.85;;
9388;SDS011;4734;52.778;6.798;2023-11-19T05:24:49;33.88;;;5.90;;
9388;SDS011;4734;52.778;6.798;2023-11-19T05:27:35;26.23;;;5.40;;
9388;SDS011;4734;52.778;6.798;2023-11-19T05:30:21;30.58;;;5.72;;
9388;SDS011;4734;52.778;6.798;2023-11-19T05:33:08;31.85;;;4.93;;
9388;SDS011;4734;52.778;6.798;2023-11-19T05:35:53;33.55;;;5.88;;
9388;SDS011;4734;52.778;6.798;2023-11-19T05:38:40;32.70;;;5.50;;
9388;SDS011;4734;52.778;6.798;2023-11-19T05:41:26;28.25;;;5.47;;
9388;SDS011;4734;52.778;6.798;2023-11-19T05:44:12;29.08;;;5.80;;
9388;SDS011;4734;52.778;6.798;2023-11-19T05:46:57;33.53;;;5.63;;
9388;SDS011;4734;52.778;6.798;2023-11-19T05:49:44;36.53;;;6.47;;
9388;SDS011;4734;52.778;6.798;2023-11-19T05:52:29;38.70;;;5.93;;
9388;SDS011;4734;52.778;6.798;2023-11-19T05:55:17;32.70;;;5.93;;
9388;SDS011;4734;52.778;6.798;2023-11-19T05:58:02;29.02;;;5.07;;
9388;SDS011;4734;52.778;6.798;2023-11-19T06:00:50;27.90;;;6.25;;
9388;SDS011;4734;52.778;6.798;2023-11-19T06:03:35;38.60;;;5.95;;
9388;SDS011;4734;52.778;6.798;2023-11-19T06:06:23;32.00;;;5.85;;
9388;SDS011;4734;52.778;6.798;2023-11-19T06:09:09;34.00;;;5.90;;
9388;SDS011;4734;52.778;6.798;2023-11-19T06:11:54;32.55;;;5.55;;
9388;SDS011;4734;52.778;6.798;2023-11-19T06:14:41;36.75;;;6.35;;
9388;SDS011;4734;52.778;6.798;2023-11-19T06:17:26;25.88;;;5.45;;
9388;SDS011;4734;52.778;6.798;2023-11-19T06:20:12;24.67;;;5.60;;
9388;SDS011;4734;52.778;6.798;2023-11-19T06:22:59;26.58;;;4.90;;
9388;SDS011;4734;52.778;6.798;2023-11-19T06:25:45;32.30;;;5.97;;
9388;SDS011;4734;52.778;6.798;2023-11-19T06:28:30;29.60;;;5.85;;
9388;SDS011;4734;52.778;6.798;2023-11-19T06:31:16;27.35;;;4.85;;
9388;SDS011;4734;52.778;6.798;2023-11-19T06:34:01;28.08;;;5.13;;
9388;SDS011;4734;52.778;6.798;2023-11-19T06:36:47;27.05;;;5.80;;
9388;SDS011;4734;52.778;6.798;2023-11-19T06:39:34;31.17;;;5.43;;
9388;SDS011;4734;52.778;6.798;2023-11-19T06:42:20;29.73;;;5.75;;
9388;SDS011;4734;52.778;6.798;2023-11-19T06:45:06;39.03;;;6.30;;
9388;SDS011;4734;52.778;6.798;2023-11-19T06:47:53;30.52;;;5.70;;
9388;SDS011;4734;52.778;6.798;2023-11-19T06:50:38;38.13;;;6.10;;
9388;SDS011;4734;52.778;6.798;2023-11-19T06:53:24;32.03;;;5.53;;
9388;SDS011;4734;52.778;6.798;2023-11-19T06:56:19;43.08;;;6.72;;
9388;SDS011;4734;52.778;6.798;2023-11-19T06:59:06;30.55;;;5.18;;
9388;SDS011;4734;52.778;6.798;2023-11-19T07:01:51;35.85;;;6.18;;
9388;SDS011;4734;52.778;6.798;2023-11-19T07:04:37;39.40;;;6.13;;
9388;SDS011;4734;52.778;6.798;2023-11-19T07:07:23;32.42;;;5.80;;
9388;SDS011;4734;52.778;6.798;2023-11-19T07:10:08;34.05;;;6.10;;
9388;SDS011;4734;52.778;6.798;2023-11-19T07:12:55;35.95;;;5.90;;
9388;SDS011;4734;52.778;6.798;2023-11-19T07:15:41;30.25;;;5.55;;
9388;SDS011;4734;52.778;6.798;2023-11-19T07:18:27;21.77;;;4.93;;
9388;SDS011;4734;52.778;6.798;2023-11-19T07:21:12;27.48;;;5.75;;
9388;SDS011;4734;52.778;6.798;2023-11-19T07:23:58;36.65;;;5.60;;
9388;SDS011;4734;52.778;6.798;2023-11-19T07:26:45;30.25;;;5.47;;
9388;SDS011;4734;52.778;6.798;2023-11-19T07:29:33;33.88;;;6.20;;
9388;SDS011;4734;52.778;6.798;2023-11-19T07:32:18;25.88;;;5.32;;
9388;SDS011;4734;52.778;6.798;2023-11-19T07:35:04;33.60;;;5.60;;
9388;SDS011;4734;52.778;6.798;2023-11-19T07:37:51;29.63;;;5.53;;
9388;SDS011;4734;52.778;6.798;2023-11-19T07:40:36;32.58;;;5.53;;
9388;SDS011;4734;52.778;6.798;2023-11-19T07:43:22;30.45;;;5.72;;
9388;SDS011;4734;52.778;6.798;2023-11-19T07:46:11;33.20;;;5.90;;
9388;SDS011;4734;52.778;6.798;2023-11-19T07:48:57;36.78;;;5.53;;
9388;SDS011;4734;52.778;6.798;2023-11-19T07:51:43;37.30;;;5.97;;
9388;SDS011;4734;52.778;6.798;2023-11-19T07:54:28;30.90;;;5.03;;
9388;SDS011;4734;52.778;6.798;2023-11-19T07:57:14;31.08;;;5.03;;
9388;SDS011;4734;52.778;6.798;2023-11-19T07:59:59;30.08;;;5.22;;
9388;SDS011;4734;52.778;6.798;2023-11-19T08:02:47;28.38;;;5.22;;
9388;SDS011;4734;52.778;6.798;2023-11-19T08:05:33;33.60;;;5.60;;
9388;SDS011;4734;52.778;6.798;2023-11-19T08:08:18;30.83;;;5.30;;
9388;SDS011;4734;52.778;6.798;2023-11-19T08:11:04;31.58;;;6.00;;
9388;SDS011;4734;52.778;6.798;2023-11-19T08:13:51;17.40;;;4.70;;
9388;SDS011;4734;52.778;6.798;2023-11-19T08:16:36;27.08;;;5.90;;
9388;SDS011;4734;52.778;6.798;2023-11-19T08:19:23;24.95;;;4.95;;
9388;SDS011;4734;52.778;6.798;2023-11-19T08:22:08;35.03;;;5.95;;
9388;SDS011;4734;52.778;6.798;2023-11-19T08:24:54;37.58;;;6.22;;
9388;SDS011;4734;52.778;6.798;2023-11-19T08:27:40;30.98;;;6.32;;
9388;SDS011;4734;52.778;6.798;2023-11-19T08:30:25;29.42;;;6.18;;
9388;SDS011;4734;52.778;6.798;2023-11-19T08:33:11;29.70;;;6.22;;
9388;SDS011;4734;52.778;6.798;2023-11-19T08:35:58;25.40;;;6.00;;
9388;SDS011;4734;52.778;6.798;2023-11-19T08:38:44;23.88;;;5.07;;
9388;SDS011;4734;52.778;6.798;2023-11-19T08:41:29;27.80;;;5.93;;
9388;SDS011;4734;52.778;6.798;2023-11-19T08:44:16;39.90;;;6.35;;
9388;SDS011;4734;52.778;6.798;2023-11-19T08:47:03;27.95;;;4.90;;
9388;SDS011;4734;52.778;6.798;2023-11-19T08:49:50;21.90;;;4.93;;
9388;SDS011;4734;52.778;6.798;2023-11-19T08:52:40;38.30;;;6.65;;
9388;SDS011;4734;52.778;6.798;2023-11-19T08:55:25;24.60;;;5.65;;
9388;SDS011;4734;52.778;6.798;2023-11-19T08:58:10;28.70;;;5.35;;
9388;SDS011;4734;52.778;6.798;2023-11-19T09:00:56;28.45;;;5.57;;
9388;SDS011;4734;52.778;6.798;2023-11-19T09:03:42;33.15;;;6.15;;
9388;SDS011;4734;52.778;6.798;2023-11-19T09:06:27;29.17;;;5.82;;
9388;SDS011;4734;52.778;6.798;2023-11-19T09:09:14;28.88;;;5.93;;
9388;SDS011;4734;52.778;6.798;2023-11-19T09:11:59;32.05;;;5.63;;
9388;SDS011;4734;52.778;6.798;2023-11-19T09:14:45;27.13;;;6.47;;
9388;SDS011;4734;52.778;6.798;2023-11-19T09:17:31;29.95;;;5.40;;
9388;SDS011;4734;52.778;6.798;2023-11-19T09:20:16;29.10;;;5.43;;
9388;SDS011;4734;52.778;6.798;2023-11-19T09:23:02;27.58;;;5.53;;
9388;SDS011;4734;52.778;6.798;2023-11-19T09:25:49;33.20;;;5.35;;
9388;SDS011;4734;52.778;6.798;2023-11-19T09:28:34;27.13;;;5.18;;
9388;SDS011;4734;52.778;6.798;2023-11-19T09:31:20;28.80;;;5.85;;
9388;SDS011;4734;52.778;6.798;2023-11-19T09:34:05;22.35;;;5.03;;
9388;SDS011;4734;52.778;6.798;2023-11-19T09:36:51;28.92;;;5.15;;
9388;SDS011;4734;52.778;6.798;2023-11-19T09:39:36;22.75;;;5.72;;
9388;SDS011;4734;52.778;6.798;2023-11-19T09:42:24;24.55;;;4.93;;
9388;SDS011;4734;52.778;6.798;2023-11-19T09:45:12;25.73;;;5.50;;
9388;SDS011;4734;52.778;6.798;2023-11-19T09:47:58;24.65;;;5.30;;
9388;SDS011;4734;52.778;6.798;2023-11-19T09:50:46;29.38;;;5.68;;
9388;SDS011;4734;52.778;6.798;2023-11-19T09:53:35;26.05;;;5.18;;
9388;SDS011;4734;52.778;6.798;2023-11-19T09:56:21;26.75;;;5.55;;
9388;SDS011;4734;52.778;6.798;2023-11-19T09:59:09;22.23;;;4.97;;
9388;SDS011;4734;52.778;6.798;2023-11-19T10:01:56;23.05;;;4.65;;
9388;SDS011;4734;52.778;6.798;2023-11-19T10:04:42;19.83;;;5.03;;
9388;SDS011;4734;52.778;6.798;2023-11-19T10:07:29;24.23;;;6.20;;
9388;SDS011;4734;52.778;6.798;2023-11-19T10:10:16;25.15;;;5.55;;
9388;SDS011;4734;52.778;6.798;2023-11-19T10:13:02;27.23;;;5.63;;
9388;SDS011;4734;52.778;6.798;2023-11-19T10:15:50;40.35;;;6.78;;
9388;SDS011;4734;52.778;6.798;2023-11-19T10:18:36;25.88;;;5.63;;
9388;SDS011;4734;52.778;6.798;2023-11-19T10:21:21;23.77;;;4.90;;
9388;SDS011;4734;52.778;6.798;2023-11-19T10:24:07;23.00;;;5.63;;
9388;SDS011;4734;52.778;6.798;2023-11-19T10:26:52;24.42;;;4.60;;
9388;SDS011;4734;52.778;6.798;2023-11-19T10:29:42;30.50;;;5.55;;
9388;SDS011;4734;52.778;6.798;2023-11-19T10:32:31;24.42;;;5.82;;
9388;SDS011;4734;52.778;6.798;2023-11-19T10:35:16;30.02;;;5.40;;
9388;SDS011;4734;52.778;6.798;2023-11-19T10:38:03;26.17;;;5.38;;
9388;SDS011;4734;52.778;6.798;2023-11-19T10:40:59;21.90;;;4.78;;
9388;SDS011;4734;52.778;6.798;2023-11-19T10:43:45;32.75;;;6.20;;
9388;SDS011;4734;52.778;6.798;2023-11-19T10:46:37;24.05;;;5.90;;
9388;SDS011;4734;52.778;6.798;2023-11-19T10:49:25;36.95;;;5.78;;
9388;SDS011;4734;52.778;6.798;2023-11-19T10:52:10;28.45;;;5.47;;
9388;SDS011;4734;52.778;6.798;2023-11-19T10:54:56;29.83;;;5.28;;
9388;SDS011;4734;52.778;6.798;2023-11-19T10:57:45;25.02;;;5.20;;
9388;SDS011;4734;52.778;6.798;2023-11-19T11:00:36;21.67;;;4.78;;
9388;SDS011;4734;52.778;6.798;2023-11-19T11:03:24;26.02;;;4.93;;
9388;SDS011;4734;52.778;6.798;2023-11-19T11:06:12;29.90;;;5.53;;
9388;SDS011;4734;52.778;6.798;2023-11-19T11:08:58;27.00;;;5.10;;
9388;SDS011;4734;52.778;6.798;2023-11-19T11:11:46;30.20;;;5.68;;
9388;SDS011;4734;52.778;6.798;2023-11-19T11:14:32;20.40;;;4.40;;
9388;SDS011;4734;52.778;6.798;2023-11-19T11:17:19;23.42;;;4.82;;
9388;SDS011;4734;52.778;6.798;2023-11-19T11:20:09;28.83;;;5.70;;
9388;SDS011;4734;52.778;6.798;2023-11-19T11:23:00;19.02;;;4.72;;
9388;SDS011;4734;52.778;6.798;2023-11-19T11:26:13;24.35;;;5.53;;
9388;SDS011;4734;52.778;6.798;2023-11-19T11:29:14;24.60;;;5.45;;
9388;SDS011;4734;52.778;6.798;2023-11-19T11:32:08;19.77;;;4.57;;
9388;SDS011;4734;52.778;6.798;2023-11-19T11:35:12;26.55;;;5.32;;
9388;SDS011;4734;52.778;6.798;2023-11-19T11:38:13;25.45;;;4.82;;
9388;SDS011;4734;52.778;6.798;2023-11-19T11:41:15;15.90;;;4.40;;
9388;SDS011;4734;52.778;6.798;2023-11-19T11:44:02;23.88;;;4.95;;
9388;SDS011;4734;52.778;6.798;2023-11-19T11:46:54;24.70;;;5.38;;
9388;SDS011;4734;52.778;6.798;2023-11-19T11:49:40;26.27;;;4.47;;
9388;SDS011;4734;52.778;6.798;2023-11-19T11:52:26;33.67;;;5.40;;
9388;SDS011;4734;52.778;6.798;2023-11-19T11:55:13;24.00;;;5.13;;
9388;SDS011;4734;52.778;6.798;2023-11-19T11:57:58;22.75;;;4.88;;
9388;SDS011;4734;52.778;6.798;2023-11-19T12:00:44;21.42;;;4.88;;
9388;SDS011;4734;52.778;6.798;2023-11-19T12:03:32;22.65;;;4.45;;
9388;SDS011;4734;52.778;6.798;2023-11-19T12:06:20;21.23;;;5.28;;
9388;SDS011;4734;52.778;6.798;2023-11-19T12:09:06;21.05;;;4.45;;
9388;SDS011;4734;52.778;6.798;2023-11-19T12:11:55;15.10;;;3.95;;
9388;SDS011;4734;52.778;6.798;2023-11-19T12:15:03;18.40;;;5.15;;
9388;SDS011;4734;52.778;6.798;2023-11-19T12:17:50;20.00;;;5.60;;
9388;SDS011;4734;52.778;6.798;2023-11-19T12:20:36;18.38;;;3.92;;
9388;SDS011;4734;52.778;6.798;2023-11-19T12:23:23;21.52;;;4.70;;
9388;SDS011;4734;52.778;6.798;2023-11-19T12:26:09;19.13;;;3.88;;
9388;SDS011;4734;52.778;6.798;2023-11-19T12:29:08;21.42;;;4.30;;
9388;SDS011;4734;52.778;6.798;2023-11-19T12:31:53;21.00;;;4.72;;
9388;SDS011;4734;52.778;6.798;2023-11-19T12:34:39;16.08;;;4.38;;
9388;SDS011;4734;52.778;6.798;2023-11-19T12:37:25;13.98;;;4.15;;
9388;SDS011;4734;52.778;6.798;2023-11-19T12:40:14;19.00;;;4.00;;
9388;SDS011;4734;52.778;6.798;2023-11-19T12:43:00;17.73;;;3.70;;
9388;SDS011;4734;52.778;6.798;2023-11-19T12:45:48;27.05;;;5.82;;
9388;SDS011;4734;52.778;6.798;2023-11-19T12:48:33;22.48;;;5.05;;
9388;SDS011;4734;52.778;6.798;2023-11-19T12:51:19;18.63;;;5.07;;
9388;SDS011;4734;52.778;6.798;2023-11-19T12:54:04;19.27;;;4.82;;
9388;SDS011;4734;52.778;6.798;2023-11-19T12:56:51;20.40;;;5.30;;
9388;SDS011;4734;52.778;6.798;2023-11-19T12:59:37;24.58;;;4.85;;
9388;SDS011;4734;52.778;6.798;2023-11-19T13:02:24;22.30;;;5.15;;
9388;SDS011;4734;52.778;6.798;2023-11-19T13:05:30;19.23;;;4.47;;
9388;SDS011;4734;52.778;6.798;2023-11-19T13:08:16;18.55;;;4.50;;
9388;SDS011;4734;52.778;6.798;2023-11-19T13:11:01;21.67;;;4.72;;
9388;SDS011;4734;52.778;6.798;2023-11-19T13:13:54;21.40;;;4.53;;
9388;SDS011;4734;52.778;6.798;2023-11-19T13:16:41;17.23;;;4.38;;
9388;SDS011;4734;52.778;6.798;2023-11-19T13:19:28;19.02;;;4.50;;
9388;SDS011;4734;52.778;6.798;2023-11-19T13:22:14;14.95;;;4.53;;
9388;SDS011;4734;52.778;6.798;2023-11-19T13:24:59;18.45;;;4.43;;
9388;SDS011;4734;52.778;6.798;2023-11-19T13:27:45;17.70;;;4.32;;
9388;SDS011;4734;52.778;6.798;2023-11-19T13:30:31;19.23;;;4.30;;
9388;SDS011;4734;52.778;6.798;2023-11-19T13:33:16;23.40;;;4.70;;
9388;SDS011;4734;52.778;6.798;2023-11-19T13:36:04;21.90;;;4.50;;
9388;SDS011;4734;52.778;6.798;2023-11-19T13:38:51;24.38;;;4.22;;
9388;SDS011;4734;52.778;6.798;2023-11-19T13:41:42;16.55;;;4.53;;
9388;SDS011;4734;52.778;6.798;2023-11-19T13:44:27;23.98;;;4.90;;
9388;SDS011;4734;52.778;6.798;2023-11-19T13:47:13;17.15;;;3.65;;
9388;SDS011;4734;52.778;6.798;2023-11-19T13:49:59;20.45;;;4.30;;
9388;SDS011;4734;52.778;6.798;2023-11-19T13:52:45;15.32;;;4.07;;
9388;SDS011;4734;52.778;6.798;2023-11-19T13:55:31;18.15;;;4.70;;
9388;SDS011;4734;52.778;6.798;2023-11-19T13:58:17;13.68;;;3.70;;
9388;SDS011;4734;52.778;6.798;2023-11-19T14:01:02;20.95;;;3.60;;
9388;SDS011;4734;52.778;6.798;2023-11-19T14:03:48;18.85;;;4.28;;
9388;SDS011;4734;52.778;6.798;2023-11-19T14:06:34;21.25;;;4.15;;
9388;SDS011;4734;52.778;6.798;2023-11-19T14:09:20;21.20;;;4.03;;
9388;SDS011;4734;52.778;6.798;2023-11-19T14:12:06;18.42;;;4.20;;
9388;SDS011;4734;52.778;6.798;2023-11-19T14:14:52;15.93;;;3.83;;
9388;SDS011;4734;52.778;6.798;2023-11-19T14:17:38;20.23;;;4.00;;
9388;SDS011;4734;52.778;6.798;2023-11-19T14:20:24;17.52;;;4.53;;
9388;SDS011;4734;52.778;6.798;2023-11-19T14:23:09;20.13;;;4.55;;
9388;SDS011;4734;52.778;6.798;2023-11-19T14:25:56;10.77;;;4.00;;
9388;SDS011;4734;52.778;6.798;2023-11-19T14:28:42;15.40;;;4.20;;
9388;SDS011;4734;52.778;6.798;2023-11-19T14:31:27;16.05;;;4.18;;
9388;SDS011;4734;52.778;6.798;2023-11-19T14:34:13;19.55;;;3.42;;
9388;SDS011;4734;52.778;6.798;2023-11-19T14:36:59;16.45;;;3.70;;
9388;SDS011;4734;52.778;6.798;2023-11-19T14:39:45;17.13;;;4.20;;
9388;SDS011;4734;52.778;6.798;2023-11-19T14:42:32;18.98;;;3.63;;
9388;SDS011;4734;52.778;6.798;2023-11-19T14:45:17;12.80;;;3.13;;
9388;SDS011;4734;52.778;6.798;2023-11-19T14:48:03;18.77;;;4.60;;
9388;SDS011;4734;52.778;6.798;2023-11-19T14:50:49;17.67;;;4.20;;
9388;SDS011;4734;52.778;6.798;2023-11-19T14:53:35;12.88;;;3.15;;
9388;SDS011;4734;52.778;6.798;2023-11-19T14:56:20;18.63;;;4.20;;
9388;SDS011;4734;52.778;6.798;2023-11-19T14:59:07;16.60;;;3.75;;
9388;SDS011;4734;52.778;6.798;2023-11-19T15:01:53;16.45;;;3.67;;
9388;SDS011;4734;52.778;6.798;2023-11-19T15:04:38;12.40;;;3.50;;
9388;SDS011;4734;52.778;6.798;2023-11-19T15:07:25;10.65;;;3.15;;
9388;SDS011;4734;52.778;6.798;2023-11-19T15:10:10;19.80;;;3.50;;
9388;SDS011;4734;52.778;6.798;2023-11-19T15:12:56;16.08;;;4.13;;
9388;SDS011;4734;52.778;6.798;2023-11-19T15:15:42;14.30;;;3.53;;
9388;SDS011;4734;52.778;6.798;2023-11-19T15:18:28;15.35;;;3.63;;
9388;SDS011;4734;52.778;6.798;2023-11-19T15:21:14;15.80;;;3.55;;
9388;SDS011;4734;52.778;6.798;2023-11-19T15:23:59;14.02;;;3.53;;
9388;SDS011;4734;52.778;6.798;2023-11-19T15:26:47;17.70;;;3.83;;
9388;SDS011;4734;52.778;6.798;2023-11-19T15:29:32;8.40;;;2.70;;
9388;SDS011;4734;52.778;6.798;2023-11-19T15:32:19;7.95;;;2.63;;
9388;SDS011;4734;52.778;6.798;2023-11-19T15:35:05;14.02;;;3.58;;
9388;SDS011;4734;52.778;6.798;2023-11-19T15:37:51;12.52;;;3.88;;
9388;SDS011;4734;52.778;6.798;2023-11-19T15:40:37;10.50;;;3.22;;
9388;SDS011;4734;52.778;6.798;2023-11-19T15:43:22;10.50;;;2.97;;
9388;SDS011;4734;52.778;6.798;2023-11-19T15:46:08;11.57;;;3.20;;
9388;SDS011;4734;52.778;6.798;2023-11-19T15:48:56;14.43;;;3.30;;
9388;SDS011;4734;52.778;6.798;2023-11-19T15:51:41;13.82;;;3.33;;
9388;SDS011;4734;52.778;6.798;2023-11-19T15:54:27;14.38;;;3.75;;
9388;SDS011;4734;52.778;6.798;2023-11-19T15:57:12;17.48;;;3.42;;
9388;SDS011;4734;52.778;6.798;2023-11-19T15:59:58;13.23;;;3.35;;
9388;SDS011;4734;52.778;6.798;2023-11-19T16:02:43;17.88;;;3.75;;
9388;SDS011;4734;52.778;6.798;2023-11-19T16:05:30;17.52;;;4.07;;
9388;SDS011;4734;52.778;6.798;2023-11-19T16:08:16;16.02;;;4.18;;
9388;SDS011;4734;52.778;6.798;2023-11-19T16:11:01;14.63;;;3.85;;
9388;SDS011;4734;52.778;6.798;2023-11-19T16:13:47;15.95;;;3.03;;
9388;SDS011;4734;52.778;6.798;2023-11-19T16:16:32;15.98;;;3.95;;
9388;SDS011;4734;52.778;6.798;2023-11-19T16:19:18;12.80;;;3.45;;
9388;SDS011;4734;52.778;6.798;2023-11-19T16:22:05;15.52;;;3.60;;
9388;SDS011;4734;52.778;6.798;2023-11-19T16:24:54;14.30;;;3.90;;
9388;SDS011;4734;52.778;6.798;2023-11-19T16:27:40;17.40;;;3.70;;
9388;SDS011;4734;52.778;6.798;2023-11-19T16:30:26;17.90;;;4.28;;
9388;SDS011;4734;52.778;6.798;2023-11-19T16:33:11;11.68;;;3.83;;
9388;SDS011;4734;52.778;6.798;2023-11-19T16:35:57;19.05;;;3.67;;
9388;SDS011;4734;52.778;6.798;2023-11-19T16:38:44;15.68;;;3.15;;
9388;SDS011;4734;52.778;6.798;2023-11-19T16:41:31;15.45;;;3.60;;
9388;SDS011;4734;52.778;6.798;2023-11-19T16:44:16;15.13;;;4.10;;
9388;SDS011;4734;52.778;6.798;2023-11-19T16:47:02;15.77;;;4.18;;
9388;SDS011;4734;52.778;6.798;2023-11-19T16:49:48;14.80;;;3.45;;
9388;SDS011;4734;52.778;6.798;2023-11-19T16:52:33;13.70;;;3.88;;
9388;SDS011;4734;52.778;6.798;2023-11-19T16:55:20;15.75;;;3.80;;
9388;SDS011;4734;52.778;6.798;2023-11-19T16:58:06;21.90;;;4.78;;